Time;durP1;ratioP1;P1;durP2;ratioP2;P2;SDS_P1;SDS_P2;PMS_P1;PMS_P2;Temp;Humidity;BMP_temperature;BMP_pressure;BME280_temperature;BME280_humidity;BME280_pressure;Samples;Min_cycle;Max_cycle;Signal;HPM_P1;HPM_P2
2022/11/17 00:01:03;;;;;;;13.90;6.25;;;;;;;;;;5030363;28;20021;-69
2022/11/17 00:03:28;;;;;;;17.05;6.72;;;;;;;;;;5029656;28;20537;-73
2022/11/17 00:06:01;;;;;;;11.48;6.00;;;;;;;;;;5028812;28;20031;-72
2022/11/17 00:08:26;;;;;;;16.55;6.97;;;;;;;;;;5029783;28;20045;-69
2022/11/17 00:10:51;;;;;;;14.90;6.18;;;;;;;;;;5030530;28;20053;-70
2022/11/17 00:16:00;;;;;;;12.85;6.40;;;;;;;;;;5031047;28;20073;-70
2022/11/17 00:21:19;;;;;;;16.92;7.40;;;;;;;;;;5030279;28;20470;-68
2022/11/17 00:23:48;;;;;;;12.77;6.72;;;;;;;;;;5033294;28;20250;-71
2022/11/17 00:26:18;;;;;;;19.45;7.90;;;;;;;;;;5031838;28;20372;-68
2022/11/17 00:28:43;;;;;;;13.23;6.63;;;;;;;;;;5032999;28;20483;-71
2022/11/17 00:34:05;;;;;;;19.67;7.15;;;;;;;;;;5034644;28;20043;-70
2022/11/17 00:36:51;;;;;;;13.63;5.70;;;;;;;;;;5033411;28;20056;-70
2022/11/17 00:39:18;;;;;;;14.50;7.07;;;;;;;;;;5034290;28;20033;-72
2022/11/17 00:41:43;;;;;;;15.18;5.57;;;;;;;;;;5029568;28;20022;-69
2022/11/17 00:44:08;;;;;;;13.57;6.22;;;;;;;;;;5033190;28;20040;-69
2022/11/17 00:46:34;;;;;;;13.15;5.88;;;;;;;;;;5034521;28;20025;-70
2022/11/17 00:48:59;;;;;;;12.95;6.07;;;;;;;;;;5034160;28;20021;-71
2022/11/17 00:51:25;;;;;;;17.23;6.05;;;;;;;;;;5034619;28;20036;-71
2022/11/17 00:53:50;;;;;;;11.05;5.63;;;;;;;;;;5034302;28;20387;-69
2022/11/17 00:56:16;;;;;;;14.07;5.40;;;;;;;;;;5032343;28;20030;-72
2022/11/17 00:58:41;;;;;;;12.68;5.78;;;;;;;;;;5033261;28;20670;-70
2022/11/17 01:01:09;;;;;;;13.02;5.57;;;;;;;;;;5033773;28;20037;-72
2022/11/17 01:03:34;;;;;;;13.15;5.00;;;;;;;;;;5033556;28;20407;-71
2022/11/17 01:06:07;;;;;;;11.02;4.68;;;;;;;;;;5033876;28;20018;-69
2022/11/17 01:08:33;;;;;;;13.18;5.47;;;;;;;;;;5033000;28;20089;-71
2022/11/17 01:11:09;;;;;;;11.10;5.45;;;;;;;;;;5032707;28;20017;-69
2022/11/17 01:13:35;;;;;;;11.80;5.57;;;;;;;;;;5030077;28;20093;-73
2022/11/17 01:16:01;;;;;;;10.82;4.78;;;;;;;;;;5031850;28;20360;-69
2022/11/17 01:18:26;;;;;;;13.15;5.15;;;;;;;;;;5031032;28;20479;-71
2022/11/17 01:20:51;;;;;;;11.15;4.10;;;;;;;;;;5030680;28;20028;-71
2022/11/17 01:23:16;;;;;;;9.50;3.90;;;;;;;;;;5032478;28;20093;-71
2022/11/17 01:25:42;;;;;;;10.25;5.28;;;;;;;;;;5033759;28;20013;-70
2022/11/17 01:28:07;;;;;;;10.52;4.97;;;;;;;;;;5031158;28;20056;-74
2022/11/17 01:30:32;;;;;;;17.45;5.80;;;;;;;;;;5032544;28;20124;-71
2022/11/17 01:32:57;;;;;;;12.13;5.28;;;;;;;;;;5030897;28;20036;-76
2022/11/17 01:35:23;;;;;;;9.45;5.00;;;;;;;;;;5031976;28;20017;-71
2022/11/17 01:37:48;;;;;;;11.73;4.97;;;;;;;;;;5031924;28;20064;-73
2022/11/17 01:40:13;;;;;;;18.08;6.97;;;;;;;;;;5032241;28;20017;-71
2022/11/17 01:42:39;;;;;;;10.82;4.97;;;;;;;;;;5028611;28;20040;-69
2022/11/17 01:45:16;;;;;;;11.02;3.95;;;;;;;;;;5031829;28;20025;-75
2022/11/17 01:47:44;;;;;;;12.35;5.10;;;;;;;;;;5032235;28;20022;-71
2022/11/17 01:50:18;;;;;;;14.77;4.60;;;;;;;;;;5034751;28;20045;-74
2022/11/17 01:52:44;;;;;;;9.68;3.85;;;;;;;;;;5033967;28;20049;-68
2022/11/17 01:55:10;;;;;;;14.43;5.35;;;;;;;;;;5032491;28;20025;-72
2022/11/17 01:57:38;;;;;;;7.90;3.72;;;;;;;;;;5031458;28;20022;-72
2022/11/17 02:00:05;;;;;;;8.05;4.22;;;;;;;;;;5031709;28;20028;-72
2022/11/17 02:02:30;;;;;;;8.85;3.63;;;;;;;;;;5032498;28;20025;-71
2022/11/17 02:05:03;;;;;;;9.98;3.85;;;;;;;;;;5031103;28;20024;-72
2022/11/17 02:07:30;;;;;;;8.65;4.03;;;;;;;;;;5030170;28;20013;-71
2022/11/17 02:09:56;;;;;;;10.13;4.03;;;;;;;;;;5030022;28;20112;-70
2022/11/17 02:12:22;;;;;;;7.57;3.58;;;;;;;;;;5029735;28;20431;-72
2022/11/17 02:14:49;;;;;;;10.02;4.25;;;;;;;;;;5031251;28;20486;-74
2022/11/17 02:17:14;;;;;;;9.25;4.40;;;;;;;;;;5030416;28;20045;-69
2022/11/17 02:19:40;;;;;;;11.65;4.07;;;;;;;;;;5029706;28;20102;-73
2022/11/17 02:22:24;;;;;;;10.85;4.18;;;;;;;;;;5018143;28;20045;-71
2022/11/17 02:24:49;;;;;;;9.95;3.85;;;;;;;;;;5025977;28;20662;-71
2022/11/17 02:27:33;;;;;;;8.90;4.00;;;;;;;;;;5030885;28;20545;-68
2022/11/17 02:29:59;;;;;;;17.40;7.10;;;;;;;;;;5031749;28;20028;-68
2022/11/17 02:32:39;;;;;;;7.93;3.90;;;;;;;;;;5031786;28;20368;-70
2022/11/17 02:35:18;;;;;;;8.77;4.18;;;;;;;;;;5019337;28;20150;-69
2022/11/17 02:38:00;;;;;;;9.95;3.78;;;;;;;;;;5030298;28;20029;-69
2022/11/17 02:40:52;;;;;;;13.40;4.88;;;;;;;;;;5026994;28;20530;-69
2022/11/17 02:46:14;;;;;;;8.23;4.20;;;;;;;;;;5029632;28;20072;-72
2022/11/17 02:48:40;;;;;;;12.18;4.88;;;;;;;;;;5028604;28;20080;-71
2022/11/17 02:51:09;;;;;;;10.48;4.63;;;;;;;;;;5028839;28;20017;-71
2022/11/17 02:53:34;;;;;;;9.40;4.75;;;;;;;;;;5029276;28;20020;-71
2022/11/17 02:56:00;;;;;;;19.23;6.50;;;;;;;;;;5029795;28;20034;-70
2022/11/17 02:58:26;;;;;;;11.23;4.45;;;;;;;;;;5028682;28;20029;-71
2022/11/17 03:01:14;;;;;;;9.57;4.32;;;;;;;;;;5030039;28;20018;-70
2022/11/17 03:03:42;;;;;;;8.02;4.50;;;;;;;;;;5026459;28;20714;-70
2022/11/17 03:06:19;;;;;;;9.60;5.00;;;;;;;;;;5030395;28;20679;-72
2022/11/17 03:08:48;;;;;;;11.90;5.30;;;;;;;;;;5030665;28;20021;-73
2022/11/17 03:11:14;;;;;;;13.43;5.68;;;;;;;;;;5028825;28;20495;-72
2022/11/17 03:13:39;;;;;;;14.98;4.50;;;;;;;;;;5029876;28;20047;-71
2022/11/17 03:16:08;;;;;;;10.68;4.55;;;;;;;;;;5030180;28;20017;-72
2022/11/17 03:18:33;;;;;;;9.50;5.38;;;;;;;;;;5028672;28;20029;-71
2022/11/17 03:21:09;;;;;;;10.00;5.07;;;;;;;;;;5030877;28;20018;-67
2022/11/17 03:23:40;;;;;;;11.80;5.60;;;;;;;;;;5031134;28;20044;-73
2022/11/17 03:26:08;;;;;;;13.23;5.70;;;;;;;;;;5026298;28;20049;-75
2022/11/17 03:28:33;;;;;;;12.52;5.40;;;;;;;;;;5028850;28;20036;-72
2022/11/17 03:31:00;;;;;;;13.50;5.78;;;;;;;;;;5029731;28;20387;-70
2022/11/17 03:33:26;;;;;;;10.85;5.68;;;;;;;;;;5043585;28;20029;-72
2022/11/17 03:36:00;;;;;;;11.60;5.32;;;;;;;;;;5029251;28;20105;-71
2022/11/17 03:38:27;;;;;;;8.90;5.47;;;;;;;;;;5027867;28;20099;-72
2022/11/17 03:40:54;;;;;;;10.05;4.97;;;;;;;;;;5026223;28;20114;-71
2022/11/17 03:43:20;;;;;;;11.70;5.50;;;;;;;;;;5029586;28;20045;-71
2022/11/17 03:45:47;;;;;;;12.48;5.13;;;;;;;;;;5029908;28;20035;-70
2022/11/17 03:48:15;;;;;;;10.98;5.82;;;;;;;;;;5028140;28;20017;-71
2022/11/17 03:50:51;;;;;;;14.80;6.00;;;;;;;;;;5029840;28;20044;-71
2022/11/17 03:53:16;;;;;;;14.60;5.60;;;;;;;;;;5030138;28;20597;-69
2022/11/17 03:56:00;;;;;;;10.23;5.07;;;;;;;;;;5029310;28;20017;-69
2022/11/17 03:58:27;;;;;;;11.93;4.82;;;;;;;;;;5032116;28;20018;-70
2022/11/17 04:00:53;;;;;;;16.48;6.07;;;;;;;;;;5033981;28;20021;-68
2022/11/17 04:03:22;;;;;;;12.48;5.65;;;;;;;;;;5032827;28;20408;-70
2022/11/17 04:05:47;;;;;;;9.95;5.47;;;;;;;;;;5033144;28;20048;-72
2022/11/17 04:08:13;;;;;;;7.75;5.07;;;;;;;;;;5030820;28;20021;-69
2022/11/17 04:15:55;;;;;;;10.55;5.47;;;;;;;;;;5031973;28;20022;-70
2022/11/17 04:16:07;;;;;;;11.35;6.25;;;;;;;;;;5031010;28;20040;-72
2022/11/17 04:18:32;;;;;;;10.07;5.68;;;;;;;;;;5029368;28;20025;-70
2022/11/17 04:20:57;;;;;;;8.75;4.93;;;;;;;;;;5032071;28;20016;-69
2022/11/17 04:23:23;;;;;;;9.88;5.35;;;;;;;;;;5032780;28;20041;-73
2022/11/17 04:28:35;;;;;;;11.18;5.00;;;;;;;;;;5027607;28;20075;-71
2022/11/17 04:31:07;;;;;;;11.20;4.80;;;;;;;;;;5033051;28;20032;-70
2022/11/17 04:33:32;;;;;;;9.18;4.65;;;;;;;;;;5034119;28;20036;-69
2022/11/17 04:35:58;;;;;;;9.52;4.55;;;;;;;;;;5033287;28;20033;-71
2022/11/17 04:38:23;;;;;;;10.23;5.03;;;;;;;;;;5034150;28;20037;-68
2022/11/17 04:43:36;;;;;;;11.75;5.57;;;;;;;;;;5026865;28;20016;-68
2022/11/17 04:46:02;;;;;;;;;;;;;;;;;;5032263;28;20116;-69
2022/11/17 04:48:27;;;;;;;10.52;4.65;;;;;;;;;;5034368;28;19956;-69
2022/11/17 04:50:53;;;;;;;10.32;5.22;;;;;;;;;;5032839;28;20045;-70
2022/11/17 04:53:18;;;;;;;9.65;5.22;;;;;;;;;;5032240;28;20064;-73
2022/11/17 04:55:43;;;;;;;9.02;5.28;;;;;;;;;;5032099;28;20061;-70
2022/11/17 04:58:09;;;;;;;10.35;4.93;;;;;;;;;;5030502;28;20066;-71
2022/11/17 05:00:34;;;;;;;9.27;4.55;;;;;;;;;;5031963;28;20013;-71
2022/11/17 05:02:59;;;;;;;11.77;6.20;;;;;;;;;;5031269;28;20163;-69
2022/11/17 05:05:24;;;;;;;14.30;6.43;;;;;;;;;;5032277;28;20052;-69
2022/11/17 05:07:50;;;;;;;9.40;5.15;;;;;;;;;;5031192;28;20021;-69
2022/11/17 05:10:15;;;;;;;13.88;5.97;;;;;;;;;;5031212;28;20049;-72
2022/11/17 05:17:03;;;;;;;12.57;5.80;;;;;;;;;;5022073;28;20037;-71
2022/11/17 05:18:09;;;;;;;10.23;5.38;;;;;;;;;;5026015;28;20083;-73
2022/11/17 05:20:35;;;;;;;17.65;5.70;;;;;;;;;;5026390;28;20018;-71
2022/11/17 05:25:44;;;;;;;10.57;5.30;;;;;;;;;;5024190;28;20035;-72
2022/11/17 05:28:09;;;;;;;10.02;4.72;;;;;;;;;;5025175;28;20414;-69
2022/11/17 05:30:34;;;;;;;11.23;6.22;;;;;;;;;;5029216;28;20112;-72
2022/11/17 05:32:59;;;;;;;14.93;5.57;;;;;;;;;;5028429;28;20037;-71
2022/11/17 05:35:25;;;;;;;19.30;6.07;;;;;;;;;;5030698;28;20114;-71
2022/11/17 05:37:50;;;;;;;13.13;5.68;;;;;;;;;;5030209;28;20084;-70
2022/11/17 05:40:15;;;;;;;15.55;6.75;;;;;;;;;;5028538;28;20028;-71
2022/11/17 05:42:40;;;;;;;12.98;5.47;;;;;;;;;;5026690;28;20021;-71
2022/11/17 05:45:06;;;;;;;15.63;5.68;;;;;;;;;;5026774;28;20013;-69
2022/11/17 05:47:31;;;;;;;11.18;5.32;;;;;;;;;;5027205;28;20018;-70
2022/11/17 05:49:56;;;;;;;15.43;5.75;;;;;;;;;;5031775;28;20097;-72
2022/11/17 05:52:22;;;;;;;12.65;4.85;;;;;;;;;;5029308;28;20022;-72
2022/11/17 05:54:49;;;;;;;11.10;5.60;;;;;;;;;;5021506;28;20037;-72
2022/11/17 05:57:18;;;;;;;10.38;5.35;;;;;;;;;;5030155;28;20053;-74
2022/11/17 05:59:50;;;;;;;14.77;5.05;;;;;;;;;;5029705;28;20029;-73
2022/11/17 06:02:16;;;;;;;13.43;5.97;;;;;;;;;;5030700;28;20049;-73
2022/11/17 06:04:42;;;;;;;12.00;5.43;;;;;;;;;;5029349;28;20049;-73
2022/11/17 06:07:08;;;;;;;14.70;6.13;;;;;;;;;;5055526;28;20360;-74
2022/11/17 06:09:35;;;;;;;10.30;5.22;;;;;;;;;;5029776;28;20066;-72
2022/11/17 06:12:00;;;;;;;11.93;5.47;;;;;;;;;;5029813;28;20094;-70
2022/11/17 06:14:25;;;;;;;11.73;5.85;;;;;;;;;;5030231;28;20029;-72
2022/11/17 06:16:53;;;;;;;10.40;5.82;;;;;;;;;;5028414;28;20434;-71
2022/11/17 06:19:23;;;;;;;11.63;4.95;;;;;;;;;;5028359;28;20052;-72
2022/11/17 06:21:49;;;;;;;12.85;6.18;;;;;;;;;;5029727;28;20024;-72
2022/11/17 06:24:14;;;;;;;11.73;5.78;;;;;;;;;;5030010;28;20030;-75
2022/11/17 06:26:40;;;;;;;12.20;5.43;;;;;;;;;;5028729;28;20032;-70
2022/11/17 06:29:06;;;;;;;14.48;6.50;;;;;;;;;;5028745;28;20033;-69
2022/11/17 06:31:32;;;;;;;11.07;5.22;;;;;;;;;;5030688;28;20093;-72
2022/11/17 06:33:58;;;;;;;12.73;5.30;;;;;;;;;;5028806;28;20032;-71
2022/11/17 06:36:24;;;;;;;12.10;5.32;;;;;;;;;;5027122;28;20133;-70
2022/11/17 06:38:49;;;;;;;15.77;5.90;;;;;;;;;;5029243;28;20641;-69
2022/11/17 06:41:14;;;;;;;9.82;5.22;;;;;;;;;;5023446;28;20021;-72
2022/11/17 06:43:39;;;;;;;10.77;5.15;;;;;;;;;;5028867;28;20025;-71
2022/11/17 06:46:05;;;;;;;13.10;5.95;;;;;;;;;;5028421;28;20022;-72
2022/11/17 06:48:34;;;;;;;10.50;5.68;;;;;;;;;;5030023;28;20436;-71
2022/11/17 06:50:59;;;;;;;;;;;;;;;;;;5027708;28;20025;-71
2022/11/17 06:53:25;;;;;;;13.02;5.53;;;;;;;;;;5029102;28;19912;-71
2022/11/17 06:56:01;;;;;;;11.50;6.05;;;;;;;;;;5027137;28;20025;-75
2022/11/17 06:58:27;;;;;;;10.25;5.55;;;;;;;;;;5028314;28;20455;-72
2022/11/17 07:00:52;;;;;;;12.25;6.10;;;;;;;;;;5029377;28;20040;-72
2022/11/17 07:03:17;;;;;;;11.07;5.47;;;;;;;;;;5028143;28;20178;-72
2022/11/17 07:05:43;;;;;;;10.70;5.78;;;;;;;;;;5025690;28;20391;-69
2022/11/17 07:08:08;;;;;;;14.30;5.78;;;;;;;;;;5029873;28;20044;-75
2022/11/17 07:10:34;;;;;;;11.75;6.07;;;;;;;;;;5027174;28;20028;-71
2022/11/17 07:13:00;;;;;;;13.13;6.22;;;;;;;;;;5028608;28;21140;-70
2022/11/17 07:15:25;;;;;;;13.10;5.45;;;;;;;;;;5030131;28;20021;-72
2022/11/17 07:17:51;;;;;;;12.45;5.60;;;;;;;;;;5029229;28;20114;-72
2022/11/17 07:20:16;;;;;;;15.68;6.40;;;;;;;;;;5030059;28;20021;-72
2022/11/17 07:22:41;;;;;;;12.77;5.38;;;;;;;;;;5030459;28;20572;-70
2022/11/17 07:25:07;;;;;;;13.63;5.32;;;;;;;;;;5029485;28;20014;-70
2022/11/17 07:27:33;;;;;;;13.50;5.43;;;;;;;;;;5028678;28;20022;-71
2022/11/17 07:29:58;;;;;;;15.95;5.90;;;;;;;;;;5030024;28;20644;-72
2022/11/17 07:32:23;;;;;;;11.18;5.55;;;;;;;;;;5029029;28;20438;-73
2022/11/17 07:34:49;;;;;;;13.45;6.55;;;;;;;;;;5033401;28;20067;-69
2022/11/17 07:37:14;;;;;;;15.27;7.05;;;;;;;;;;5040321;28;20047;-73
2022/11/17 07:39:39;;;;;;;11.10;5.90;;;;;;;;;;5033419;28;20533;-72
2022/11/17 07:42:05;;;;;;;20.98;5.97;;;;;;;;;;5033261;28;20025;-70
2022/11/17 07:44:30;;;;;;;12.60;6.03;;;;;;;;;;5032966;28;20023;-72
2022/11/17 07:46:55;;;;;;;14.05;6.45;;;;;;;;;;5031995;28;20029;-71
2022/11/17 07:49:21;;;;;;;12.35;5.43;;;;;;;;;;5033123;28;20052;-72
2022/11/17 07:51:46;;;;;;;11.13;5.82;;;;;;;;;;5029224;28;20021;-73
2022/11/17 07:54:11;;;;;;;12.38;6.00;;;;;;;;;;5033829;28;20049;-72
2022/11/17 07:56:36;;;;;;;12.70;6.18;;;;;;;;;;5016636;28;20046;-73
2022/11/17 07:59:02;;;;;;;13.27;6.85;;;;;;;;;;5032310;28;20121;-69
2022/11/17 08:01:28;;;;;;;14.55;5.30;;;;;;;;;;5032653;28;20029;-70
2022/11/17 08:03:53;;;;;;;12.82;5.70;;;;;;;;;;5030771;28;20026;-75
2022/11/17 08:06:19;;;;;;;13.80;6.47;;;;;;;;;;5032141;28;20025;-75
2022/11/17 08:08:44;;;;;;;12.25;5.82;;;;;;;;;;5032850;28;20029;-73
2022/11/17 08:11:10;;;;;;;11.07;6.10;;;;;;;;;;5032398;28;20032;-69
2022/11/17 08:13:36;;;;;;;14.70;7.47;;;;;;;;;;5033026;28;20080;-71
2022/11/17 08:16:02;;;;;;;15.68;6.93;;;;;;;;;;5033212;28;20109;-74
2022/11/17 08:18:28;;;;;;;15.55;5.53;;;;;;;;;;5031929;28;20027;-70
2022/11/17 08:21:19;;;;;;;17.00;5.25;;;;;;;;;;5031668;28;20013;-70
2022/11/17 08:23:48;;;;;;;10.15;5.28;;;;;;;;;;5030549;28;20068;-70
2022/11/17 08:26:13;;;;;;;9.50;5.25;;;;;;;;;;5031158;28;20052;-70
2022/11/17 08:28:38;;;;;;;10.98;5.82;;;;;;;;;;5030747;28;20068;-72
2022/11/17 08:31:04;;;;;;;13.52;6.55;;;;;;;;;;5031261;28;20060;-72
2022/11/17 08:33:30;;;;;;;15.35;6.93;;;;;;;;;;5031541;28;20033;-70
2022/11/17 08:35:56;;;;;;;17.55;6.55;;;;;;;;;;5031568;28;20029;-71
2022/11/17 08:38:23;;;;;;;11.70;5.75;;;;;;;;;;5031078;28;20598;-71
2022/11/17 08:40:49;;;;;;;12.88;5.50;;;;;;;;;;5029903;28;20025;-72
2022/11/17 08:43:14;;;;;;;12.82;6.43;;;;;;;;;;5033780;28;20009;-70
2022/11/17 08:45:40;;;;;;;14.60;6.70;;;;;;;;;;5034304;28;20392;-74
2022/11/17 08:48:06;;;;;;;16.65;5.82;;;;;;;;;;5030979;28;20017;-72
2022/11/17 08:50:31;;;;;;;13.25;4.68;;;;;;;;;;5032623;28;20475;-70
2022/11/17 08:52:56;;;;;;;11.10;5.45;;;;;;;;;;5032945;28;20033;-71
2022/11/17 08:55:22;;;;;;;11.95;5.45;;;;;;;;;;5031985;28;20028;-69
2022/11/17 08:57:47;;;;;;;12.23;5.85;;;;;;;;;;5030580;28;20056;-72
2022/11/17 09:00:13;;;;;;;12.07;5.57;;;;;;;;;;5032662;28;20049;-70
2022/11/17 09:02:38;;;;;;;13.25;5.07;;;;;;;;;;5029368;28;20025;-70
2022/11/17 09:05:04;;;;;;;18.10;8.43;;;;;;;;;;5027143;28;20028;-70
2022/11/17 09:07:35;;;;;;;14.95;6.45;;;;;;;;;;5030837;28;20024;-73
2022/11/17 09:10:02;;;;;;;15.68;5.32;;;;;;;;;;5031361;28;20108;-68
2022/11/17 09:12:27;;;;;;;12.32;5.93;;;;;;;;;;5024515;28;20057;-73
2022/11/17 09:14:52;;;;;;;9.98;5.22;;;;;;;;;;5029529;28;20048;-69
2022/11/17 09:17:18;;;;;;;15.80;6.82;;;;;;;;;;5027341;28;20053;-72
2022/11/17 09:19:43;;;;;;;12.73;6.00;;;;;;;;;;5031694;28;20017;-70
2022/11/17 09:22:08;;;;;;;14.65;6.13;;;;;;;;;;5030176;28;20025;-73
2022/11/17 09:24:33;;;;;;;10.70;5.00;;;;;;;;;;5027707;28;20029;-69
2022/11/17 09:27:01;;;;;;;14.02;5.90;;;;;;;;;;5030419;28;20491;-71
2022/11/17 09:29:26;;;;;;;13.88;6.47;;;;;;;;;;5031416;28;20045;-70
2022/11/17 09:31:52;;;;;;;13.43;4.55;;;;;;;;;;5031012;28;20053;-69
2022/11/17 09:34:17;;;;;;;9.82;4.82;;;;;;;;;;5030184;28;20025;-72
2022/11/17 09:36:42;;;;;;;12.23;4.85;;;;;;;;;;5029605;28;20029;-70
2022/11/17 09:39:07;;;;;;;15.75;6.25;;;;;;;;;;5028770;28;20033;-71
2022/11/17 09:41:33;;;;;;;11.35;5.95;;;;;;;;;;5027363;28;20105;-73
2022/11/17 09:44:01;;;;;;;13.68;6.07;;;;;;;;;;5028981;28;20096;-71
2022/11/17 09:46:30;;;;;;;11.43;6.50;;;;;;;;;;5030299;28;20025;-71
2022/11/17 09:49:06;;;;;;;14.80;5.65;;;;;;;;;;5029885;28;20078;-72
2022/11/17 09:51:33;;;;;;;13.30;7.22;;;;;;;;;;5030966;28;20030;-71
2022/11/17 09:54:02;;;;;;;16.73;6.40;;;;;;;;;;5030203;28;20108;-71
2022/11/17 09:56:27;;;;;;;12.15;6.15;;;;;;;;;;5027964;28;20025;-72
2022/11/17 09:59:03;;;;;;;13.90;7.13;;;;;;;;;;5030049;28;20056;-70
2022/11/17 10:01:28;;;;;;;18.05;7.43;;;;;;;;;;5031286;28;20479;-73
2022/11/17 10:03:58;;;;;;;14.55;7.03;;;;;;;;;;5029979;28;20032;-73
2022/11/17 10:06:29;;;;;;;16.13;7.45;;;;;;;;;;5029326;28;20029;-76
2022/11/17 10:08:57;;;;;;;14.75;6.68;;;;;;;;;;5028703;28;20018;-73
2022/11/17 10:11:33;;;;;;;16.42;6.68;;;;;;;;;;5030485;28;20501;-70
2022/11/17 10:14:09;;;;;;;17.55;7.43;;;;;;;;;;5031520;28;20030;-73
2022/11/17 10:16:35;;;;;;;18.10;7.15;;;;;;;;;;5028555;28;20029;-71
2022/11/17 10:19:15;;;;;;;19.70;7.38;;;;;;;;;;5029856;28;20022;-72
2022/11/17 10:21:40;;;;;;;17.45;7.10;;;;;;;;;;5017853;28;20049;-72
2022/11/17 10:24:06;;;;;;;24.33;8.38;;;;;;;;;;5030916;28;20614;-72
2022/11/17 10:26:43;;;;;;;11.77;6.28;;;;;;;;;;5029301;28;20536;-73
2022/11/17 10:29:10;;;;;;;14.10;7.88;;;;;;;;;;5029121;28;20033;-72
2022/11/17 10:31:43;;;;;;;15.32;7.28;;;;;;;;;;5029615;28;20021;-70
2022/11/17 10:34:28;;;;;;;15.48;7.32;;;;;;;;;;5028922;28;20033;-71
2022/11/17 10:36:53;;;;;;;23.88;7.75;;;;;;;;;;5028864;28;20528;-72
2022/11/17 10:39:30;;;;;;;15.82;7.05;;;;;;;;;;5030844;28;20017;-70
2022/11/17 10:41:56;;;;;;;19.55;7.32;;;;;;;;;;5025821;28;20026;-72
2022/11/17 10:44:23;;;;;;;18.15;7.88;;;;;;;;;;5030539;28;20021;-69
2022/11/17 10:46:59;;;;;;;18.83;8.20;;;;;;;;;;5030889;28;20079;-69
2022/11/17 10:49:25;;;;;;;18.70;8.63;;;;;;;;;;5029413;28;20033;-70
2022/11/17 10:52:10;;;;;;;21.15;7.95;;;;;;;;;;5028046;28;20360;-71
2022/11/17 10:54:35;;;;;;;20.55;7.57;;;;;;;;;;5028844;28;20021;-69
2022/11/17 10:57:00;;;;;;;19.48;7.68;;;;;;;;;;5028965;28;20014;-68
2022/11/17 10:59:30;;;;;;;26.48;8.65;;;;;;;;;;5029005;28;20491;-71
2022/11/17 11:01:56;;;;;;;15.15;6.75;;;;;;;;;;5029447;28;20103;-71
2022/11/17 11:04:26;;;;;;;19.55;9.27;;;;;;;;;;5028338;28;20414;-67
2022/11/17 11:07:24;;;;;;;19.05;7.13;;;;;;;;;;5027439;28;20028;-71
2022/11/17 11:09:57;;;;;;;15.50;8.07;;;;;;;;;;5004956;28;20077;-70
2022/11/17 11:12:48;;;;;;;13.93;6.72;;;;;;;;;;5028812;28;20018;-69
2022/11/17 11:15:23;;;;;;;26.13;10.30;;;;;;;;;;5019790;28;20033;-70
2022/11/17 11:17:48;;;;;;;16.65;7.65;;;;;;;;;;5027487;28;20037;-69
2022/11/17 11:20:18;;;;;;;14.90;7.03;;;;;;;;;;5027919;28;20021;-73
2022/11/17 11:22:47;;;;;;;19.52;9.43;;;;;;;;;;5028657;28;20087;-72
2022/11/17 11:25:15;;;;;;;18.05;8.00;;;;;;;;;;5022284;28;20025;-69
2022/11/17 11:28:03;;;;;;;17.35;7.65;;;;;;;;;;5027083;28;20061;-70
2022/11/17 11:30:30;;;;;;;16.60;7.20;;;;;;;;;;5022762;28;20097;-70
2022/11/17 11:33:18;;;;;;;20.88;7.80;;;;;;;;;;5021055;28;20126;-73
2022/11/17 11:35:59;;;;;;;23.10;7.40;;;;;;;;;;5033824;28;20403;-67
2022/11/17 11:38:24;;;;;;;20.73;8.32;;;;;;;;;;5020994;28;20163;-69
2022/11/17 11:41:08;;;;;;;18.83;10.52;;;;;;;;;;5021346;28;20101;-69
2022/11/17 11:43:52;;;;;;;19.33;9.25;;;;;;;;;;5022495;28;20136;-68
2022/11/17 11:46:36;;;;;;;18.67;7.53;;;;;;;;;;5021771;28;20483;-69
2022/11/17 11:49:11;;;;;;;14.85;7.47;;;;;;;;;;5024996;28;20475;-70
2022/11/17 11:51:37;;;;;;;18.42;8.60;;;;;;;;;;5027616;28;20025;-69
2022/11/17 11:54:07;;;;;;;15.40;8.25;;;;;;;;;;5029262;28;20017;-72
2022/11/17 11:56:33;;;;;;;24.23;11.45;;;;;;;;;;5027694;28;20028;-72
2022/11/17 11:59:11;;;;;;;14.82;8.15;;;;;;;;;;5025733;28;20115;-70
2022/11/17 12:02:01;;;;;;;28.88;11.68;;;;;;;;;;5027873;28;20380;-70
2022/11/17 12:04:43;;;;;;;16.73;8.82;;;;;;;;;;5028284;28;20019;-68
2022/11/17 12:07:28;;;;;;;23.38;8.82;;;;;;;;;;5027308;28;20353;-70
2022/11/17 12:09:53;;;;;;;16.55;8.48;;;;;;;;;;5022771;28;20033;-70
2022/11/17 12:12:28;;;;;;;19.95;9.05;;;;;;;;;;5029107;28;20104;-69
2022/11/17 12:15:10;;;;;;;17.67;8.40;;;;;;;;;;5029215;28;20026;-70
2022/11/17 12:17:36;;;;;;;17.52;7.75;;;;;;;;;;5020624;28;20018;-69
2022/11/17 12:20:02;;;;;;;17.35;7.05;;;;;;;;;;5027386;28;20061;-69
2022/11/17 12:22:27;;;;;;;13.52;7.28;;;;;;;;;;5031606;28;20021;-68
2022/11/17 12:25:05;;;;;;;19.42;8.98;;;;;;;;;;5031473;28;20024;-69
2022/11/17 12:27:33;;;;;;;18.13;8.10;;;;;;;;;;5009932;28;20026;-71
2022/11/17 12:29:58;;;;;;;21.10;8.25;;;;;;;;;;5025153;28;20069;-69
2022/11/17 12:32:56;;;;;;;20.27;8.45;;;;;;;;;;5030800;28;20036;-69
2022/11/17 12:35:31;;;;;;;19.80;8.82;;;;;;;;;;4999143;28;20042;-71
2022/11/17 12:38:15;;;;;;;14.52;7.07;;;;;;;;;;5028772;28;20022;-67
2022/11/17 12:40:44;;;;;;;19.70;8.38;;;;;;;;;;5028246;28;20660;-71
2022/11/17 12:43:19;;;;;;;22.20;8.73;;;;;;;;;;5024716;28;20028;-69
2022/11/17 12:46:02;;;;;;;17.92;8.75;;;;;;;;;;5031168;28;20032;-69
2022/11/17 12:48:32;;;;;;;18.58;8.65;;;;;;;;;;5021741;28;20463;-71
2022/11/17 12:51:25;;;;;;;15.50;7.15;;;;;;;;;;5030685;28;20013;-71
2022/11/17 12:53:53;;;;;;;20.48;9.82;;;;;;;;;;5028019;28;20060;-70
2022/11/17 12:56:26;;;;;;;19.30;8.27;;;;;;;;;;5030714;28;20164;-70
2022/11/17 12:59:10;;;;;;;14.32;7.55;;;;;;;;;;5030083;28;20243;-71
2022/11/17 13:01:38;;;;;;;19.08;8.65;;;;;;;;;;5030895;28;20056;-69
2022/11/17 13:04:14;;;;;;;21.10;8.03;;;;;;;;;;5021647;28;20112;-69
2022/11/17 13:07:00;;;;;;;17.08;8.05;;;;;;;;;;5022297;28;20113;-69
2022/11/17 13:09:26;;;;;;;18.08;7.68;;;;;;;;;;5021189;28;20093;-69
2022/11/17 13:11:59;;;;;;;18.10;8.10;;;;;;;;;;5022774;28;20021;-70
2022/11/17 13:14:24;;;;;;;16.40;7.38;;;;;;;;;;5021819;28;20044;-70
2022/11/17 13:16:49;;;;;;;17.23;8.10;;;;;;;;;;5023453;28;20523;-69
2022/11/17 13:19:32;;;;;;;15.30;8.43;;;;;;;;;;5022510;28;20709;-70
2022/11/17 13:21:58;;;;;;;16.77;7.47;;;;;;;;;;5023549;28;20037;-68
2022/11/17 13:24:27;;;;;;;17.17;7.03;;;;;;;;;;5023840;28;20022;-69
2022/11/17 13:27:00;;;;;;;16.60;8.02;;;;;;;;;;5023447;28;20079;-71
2022/11/17 13:29:25;;;;;;;14.02;6.55;;;;;;;;;;5020716;28;20049;-70
2022/11/17 13:32:03;;;;;;;22.27;9.55;;;;;;;;;;5021692;28;20099;-71
2022/11/17 13:34:29;;;;;;;15.60;8.73;;;;;;;;;;5029753;28;20056;-72
2022/11/17 13:36:56;;;;;;;20.30;9.00;;;;;;;;;;5027279;28;20111;-71
2022/11/17 13:39:21;;;;;;;16.73;7.85;;;;;;;;;;5028567;28;20013;-71
2022/11/17 13:41:47;;;;;;;18.00;8.73;;;;;;;;;;5016727;28;20447;-70
2022/11/17 13:44:13;;;;;;;23.10;9.30;;;;;;;;;;5029498;28;20048;-72
2022/11/17 13:46:39;;;;;;;21.27;8.23;;;;;;;;;;5030382;28;20022;-72
2022/11/17 13:49:24;;;;;;;19.17;7.53;;;;;;;;;;5029835;28;20051;-72
2022/11/17 13:51:49;;;;;;;19.48;8.75;;;;;;;;;;5055740;28;20025;-72
2022/11/17 13:54:16;;;;;;;23.70;9.63;;;;;;;;;;5029989;28;20120;-72
2022/11/17 13:56:49;;;;;;;28.63;9.73;;;;;;;;;;5027532;28;20558;-71
2022/11/17 13:59:17;;;;;;;21.90;8.38;;;;;;;;;;5030271;28;20025;-71
2022/11/17 14:01:42;;;;;;;20.60;9.05;;;;;;;;;;5029753;28;20041;-73
2022/11/17 14:04:12;;;;;;;16.50;8.00;;;;;;;;;;5029804;28;20064;-70
2022/11/17 14:07:10;;;;;;;16.48;8.02;;;;;;;;;;5028924;28;20736;-71
2022/11/17 14:09:36;;;;;;;22.03;8.93;;;;;;;;;;5011689;28;20171;-72
2022/11/17 14:12:08;;;;;;;23.40;8.50;;;;;;;;;;5029907;28;20795;-70
2022/11/17 14:14:37;;;;;;;23.90;8.88;;;;;;;;;;5027945;28;20022;-72
2022/11/17 14:17:31;;;;;;;21.58;9.23;;;;;;;;;;5029208;28;20025;-69
2022/11/17 14:20:15;;;;;;;19.10;8.52;;;;;;;;;;5023687;28;20032;-69
2022/11/17 14:22:57;;;;;;;20.90;8.98;;;;;;;;;;5029286;28;20021;-72
2022/11/17 14:25:22;;;;;;;45.05;11.20;;;;;;;;;;5019880;28;20021;-72
2022/11/17 14:27:48;;;;;;;19.88;9.05;;;;;;;;;;5028723;28;20014;-70
2022/11/17 14:30:13;;;;;;;23.08;10.05;;;;;;;;;;5028443;28;20022;-71
2022/11/17 14:32:39;;;;;;;22.15;10.10;;;;;;;;;;5028986;28;20640;-69
2022/11/17 14:35:04;;;;;;;24.17;9.88;;;;;;;;;;5029456;28;20021;-72
2022/11/17 14:37:30;;;;;;;18.55;9.55;;;;;;;;;;5022831;28;20014;-68
2022/11/17 14:39:55;;;;;;;19.52;8.55;;;;;;;;;;5028566;28;20525;-70
2022/11/17 14:42:20;;;;;;;20.65;10.25;;;;;;;;;;5027898;28;20044;-70
2022/11/17 14:44:45;;;;;;;20.15;9.73;;;;;;;;;;5028495;28;20021;-67
2022/11/17 14:47:11;;;;;;;19.10;9.27;;;;;;;;;;5022630;28;20033;-73
2022/11/17 14:49:36;;;;;;;23.15;9.02;;;;;;;;;;5020263;28;20037;-70
2022/11/17 14:52:01;;;;;;;19.25;8.88;;;;;;;;;;5021367;28;20022;-71
2022/11/17 14:54:27;;;;;;;24.38;8.70;;;;;;;;;;5020974;28;20026;-68
2022/11/17 14:56:53;;;;;;;34.67;10.10;;;;;;;;;;5019778;28;20028;-72
2022/11/17 14:59:18;;;;;;;22.35;9.70;;;;;;;;;;5022030;28;20017;-70
2022/11/17 15:01:43;;;;;;;28.40;9.95;;;;;;;;;;5022851;28;20017;-70
2022/11/17 15:04:12;;;;;;;17.88;8.82;;;;;;;;;;5019782;28;20455;-69
2022/11/17 15:06:37;;;;;;;20.98;9.75;;;;;;;;;;5020068;28;20040;-69